Time;durP1;ratioP1;P1;durP2;ratioP2;P2;SDS_P1;SDS_P2;PMS_P1;PMS_P2;Temp;Humidity;BMP_temperature;BMP_pressure;BME280_temperature;BME280_humidity;BME280_pressure;Samples;Min_cycle;Max_cycle;Signal;HPM_P1;HPM_P2
2020/12/17 00:02:02;;;;;;;21.33;10.65;;;6.20;99.90;;;;;;5025218;28;20052;-61
2020/12/17 00:04:48;;;;;;;24.27;12.38;;;6.20;99.90;;;;;;5052487;28;20401;-61
2020/12/17 00:07:37;;;;;;;21.98;11.52;;;6.20;99.90;;;;;;5052581;28;20025;-61
2020/12/17 00:10:23;;;;;;;22.98;12.82;;;6.30;99.90;;;;;;5050618;28;20041;-61
2020/12/17 00:13:09;;;;;;;22.65;10.77;;;6.30;99.90;;;;;;5052366;28;20035;-61
2020/12/17 00:15:55;;;;;;;18.83;11.18;;;6.30;99.90;;;;;;5052974;28;20087;-61
2020/12/17 00:18:41;;;;;;;20.77;11.27;;;6.30;99.90;;;;;;5051924;28;20040;-61
2020/12/17 00:21:27;;;;;;;21.17;11.57;;;6.50;99.90;;;;;;5038126;28;20634;-62
2020/12/17 00:24:13;;;;;;;25.00;12.27;;;6.60;99.90;;;;;;5052132;28;20098;-62
2020/12/17 00:27:00;;;;;;;22.33;11.23;;;6.50;99.90;;;;;;5051820;28;20090;-62
2020/12/17 00:29:46;;;;;;;26.27;13.07;;;6.60;99.90;;;;;;5052174;28;20044;-62
2020/12/17 00:32:33;;;;;;;22.02;11.50;;;6.60;99.90;;;;;;5052734;28;20091;-62
2020/12/17 00:35:19;;;;;;;24.10;12.32;;;6.70;99.90;;;;;;5037480;28;20418;-62
2020/12/17 00:38:05;;;;;;;23.23;12.07;;;6.80;99.90;;;;;;5050747;28;20040;-62
2020/12/17 00:40:51;;;;;;;19.38;10.95;;;6.80;99.90;;;;;;5052387;28;20060;-62
2020/12/17 00:43:37;;;;;;;19.20;11.00;;;6.90;99.90;;;;;;5051953;28;20048;-62
2020/12/17 00:46:23;;;;;;;20.00;10.98;;;7.00;99.90;;;;;;5050917;28;20096;-62
2020/12/17 00:49:09;;;;;;;21.15;10.80;;;6.90;99.90;;;;;;5051767;28;20033;-62
2020/12/17 00:52:02;;;;;;;21.65;11.13;;;6.90;99.90;;;;;;5051865;28;20040;-62
2020/12/17 00:54:49;;;;;;;18.25;10.15;;;7.00;99.90;;;;;;5051122;28;20095;-62
2020/12/17 00:57:35;;;;;;;21.38;10.05;;;7.00;99.90;;;;;;5051982;28;20119;-62
2020/12/17 01:00:21;;;;;;;24.17;11.50;;;7.20;99.90;;;;;;5051548;28;20033;-62
2020/12/17 01:03:07;;;;;;;20.83;10.77;;;7.10;99.90;;;;;;5051550;28;20544;-62
2020/12/17 01:05:53;;;;;;;17.40;10.30;;;7.10;99.90;;;;;;5051572;28;20041;-62
2020/12/17 01:08:42;;;;;;;21.63;11.10;;;7.10;99.90;;;;;;5051549;28;20029;-62
2020/12/17 01:11:30;;;;;;;19.60;10.95;;;7.20;99.90;;;;;;5037295;28;20183;-62
2020/12/17 01:14:16;;;;;;;21.88;10.10;;;7.30;99.90;;;;;;5052013;28;20036;-62
2020/12/17 01:17:06;;;;;;;18.42;10.10;;;7.40;99.90;;;;;;5050946;28;20543;-63
2020/12/17 01:19:52;;;;;;;20.10;9.95;;;7.20;99.90;;;;;;5036328;28;20064;-63
2020/12/17 01:22:38;;;;;;;18.65;10.10;;;7.20;99.90;;;;;;5051771;28;20041;-62
2020/12/17 01:25:24;;;;;;;19.52;10.40;;;7.30;99.90;;;;;;5051126;28;20037;-61
2020/12/17 01:28:12;;;;;;;20.13;10.55;;;7.30;99.90;;;;;;5050471;28;20525;-61
2020/12/17 01:30:58;;;;;;;25.98;11.52;;;7.30;99.90;;;;;;5050044;28;20026;-61
2020/12/17 01:33:44;;;;;;;22.65;10.77;;;7.10;99.90;;;;;;5049494;28;20067;-61
2020/12/17 01:36:30;;;;;;;23.17;11.07;;;7.00;99.90;;;;;;5049877;28;20120;-62
2020/12/17 01:39:16;;;;;;;26.15;12.75;;;7.00;99.90;;;;;;5035991;28;20056;-61
2020/12/17 01:42:02;;;;;;;22.33;11.57;;;7.00;99.90;;;;;;5036375;28;20489;-61
2020/12/17 01:44:48;;;;;;;22.17;10.70;;;6.90;99.90;;;;;;5049198;28;20048;-62
2020/12/17 01:47:38;;;;;;;21.27;11.20;;;7.00;99.90;;;;;;5029707;28;20045;-61
2020/12/17 01:50:25;;;;;;;21.58;11.38;;;7.10;99.90;;;;;;5031074;28;20449;-61
2020/12/17 01:53:12;;;;;;;22.30;11.65;;;7.10;99.90;;;;;;5031413;28;20121;-61
2020/12/17 01:56:01;;;;;;;25.98;11.75;;;7.10;99.90;;;;;;5032088;28;20124;-61
2020/12/17 01:59:11;;;;;;;22.27;10.85;;;7.10;99.90;;;;;;5030609;28;20041;-61
2020/12/17 02:02:03;;;;;;;23.92;10.70;;;7.30;99.90;;;;;;5030581;28;20383;-61
2020/12/17 02:04:49;;;;;;;15.60;9.15;;;7.20;99.90;;;;;;5031196;28;20045;-62
2020/12/17 02:07:35;;;;;;;20.17;10.25;;;7.20;99.90;;;;;;5016483;28;20042;-62
2020/12/17 02:10:21;;;;;;;20.67;10.40;;;7.20;99.90;;;;;;5030614;28;20044;-62
2020/12/17 02:13:07;;;;;;;19.52;9.75;;;7.30;99.90;;;;;;5017520;28;20596;-62
2020/12/17 02:15:53;;;;;;;19.92;10.80;;;7.30;99.90;;;;;;5030126;28;20104;-63
2020/12/17 02:18:39;;;;;;;19.35;11.27;;;7.20;99.90;;;;;;5031183;28;20108;-63
2020/12/17 02:21:25;;;;;;;21.17;10.57;;;7.20;99.90;;;;;;5029989;28;20037;-63
2020/12/17 02:24:12;;;;;;;16.63;9.15;;;7.20;99.90;;;;;;5030251;28;20045;-63
2020/12/17 02:26:58;;;;;;;21.83;11.20;;;7.30;99.90;;;;;;5030317;28;20055;-63
2020/12/17 02:29:44;;;;;;;20.25;9.85;;;7.20;99.90;;;;;;5015766;28;20037;-63
2020/12/17 02:32:30;;;;;;;24.00;10.32;;;7.20;99.90;;;;;;5017857;28;20125;-63
2020/12/17 02:35:16;;;;;;;19.67;10.82;;;7.30;99.90;;;;;;5033718;28;20044;-63
2020/12/17 02:38:03;;;;;;;20.55;9.85;;;7.30;99.90;;;;;;5034441;28;20084;-63
2020/12/17 02:40:53;;;;;;;18.73;9.80;;;7.30;99.90;;;;;;5035030;28;20128;-63
2020/12/17 02:43:40;;;;;;;19.20;10.20;;;7.10;99.90;;;;;;5006554;28;20025;-63
2020/12/17 02:46:26;;;;;;;18.90;10.32;;;7.00;99.90;;;;;;5046654;28;20041;-63
2020/12/17 02:49:12;;;;;;;20.45;9.50;;;6.90;99.90;;;;;;5052989;28;20029;-63
2020/12/17 02:51:58;;;;;;;18.38;9.90;;;6.90;99.90;;;;;;5053148;28;20040;-63
2020/12/17 02:54:44;;;;;;;19.88;10.00;;;6.90;99.90;;;;;;5052529;28;20474;-63
2020/12/17 02:57:30;;;;;;;21.35;10.30;;;7.10;99.90;;;;;;5052851;28;20043;-62
2020/12/17 03:00:16;;;;;;;24.48;10.63;;;7.10;99.90;;;;;;5052930;28;20037;-62
2020/12/17 03:03:02;;;;;;;15.85;9.07;;;7.00;99.90;;;;;;5053443;28;20099;-62
2020/12/17 03:05:49;;;;;;;15.95;9.15;;;6.90;99.90;;;;;;5037687;28;20045;-62
2020/12/17 03:08:35;;;;;;;22.00;10.10;;;7.00;99.90;;;;;;5037567;28;20029;-61
2020/12/17 03:11:21;;;;;;;16.67;9.35;;;7.00;99.90;;;;;;5054229;28;20063;-61
2020/12/17 03:14:07;;;;;;;18.77;9.80;;;7.00;99.90;;;;;;5055134;28;20072;-61
2020/12/17 03:16:54;;;;;;;19.25;10.20;;;6.90;99.90;;;;;;5039603;28;20029;-61
2020/12/17 03:19:40;;;;;;;23.10;9.80;;;7.00;99.90;;;;;;5052381;28;20057;-61
2020/12/17 03:22:26;;;;;;;20.63;10.60;;;6.90;99.90;;;;;;5053449;28;20052;-61
2020/12/17 03:25:12;;;;;;;18.30;9.32;;;7.00;99.90;;;;;;5053906;28;20048;-61
2020/12/17 03:27:58;;;;;;;19.50;9.50;;;7.00;99.90;;;;;;5053383;28;20033;-61
2020/12/17 03:30:44;;;;;;;18.48;9.82;;;7.00;99.90;;;;;;5053517;28;20045;-61
2020/12/17 03:33:31;;;;;;;18.48;9.27;;;6.90;99.90;;;;;;5053282;28;20037;-61
2020/12/17 03:36:17;;;;;;;25.63;10.60;;;6.90;99.90;;;;;;5052583;28;20040;-61
2020/12/17 03:39:04;;;;;;;21.83;9.65;;;6.90;99.90;;;;;;5038919;28;20032;-62
2020/12/17 03:41:50;;;;;;;22.83;10.18;;;7.00;99.90;;;;;;5052267;28;20048;-62
2020/12/17 03:44:36;;;;;;;19.17;10.38;;;6.90;99.90;;;;;;5052129;28;20044;-62
2020/12/17 03:47:22;;;;;;;20.05;9.77;;;6.90;99.90;;;;;;5038101;28;20045;-62
2020/12/17 03:50:08;;;;;;;21.45;11.43;;;6.80;99.90;;;;;;5036749;28;20508;-62
2020/12/17 03:52:54;;;;;;;23.70;11.52;;;6.90;99.90;;;;;;5052889;28;20029;-62
2020/12/17 03:55:40;;;;;;;19.65;10.55;;;6.90;99.90;;;;;;5052100;28;20044;-62
2020/12/17 03:58:26;;;;;;;19.55;9.77;;;6.80;99.90;;;;;;5051446;28;20095;-62
2020/12/17 04:01:12;;;;;;;21.67;10.65;;;6.70;99.90;;;;;;5050880;28;20111;-62
2020/12/17 04:03:58;;;;;;;23.83;10.80;;;6.70;99.90;;;;;;5050893;28;20527;-62
2020/12/17 04:06:44;;;;;;;19.88;10.40;;;6.60;99.90;;;;;;5037572;28;20032;-61
2020/12/17 04:09:30;;;;;;;20.42;10.85;;;6.60;99.90;;;;;;5051822;28;20025;-62
2020/12/17 04:12:16;;;;;;;21.42;9.82;;;6.70;99.90;;;;;;5051849;28;20063;-62
2020/12/17 04:15:03;;;;;;;20.42;10.35;;;6.70;99.90;;;;;;5051843;28;20074;-62
2020/12/17 04:17:49;;;;;;;19.23;9.93;;;6.80;99.90;;;;;;5051873;28;20036;-62
2020/12/17 04:20:35;;;;;;;20.88;10.32;;;6.70;99.90;;;;;;5051873;28;20069;-62
2020/12/17 04:23:22;;;;;;;21.02;10.82;;;6.80;99.90;;;;;;5051338;28;20037;-61
2020/12/17 04:26:13;;;;;;;23.52;11.27;;;6.90;99.90;;;;;;5036885;28;20068;-61
2020/12/17 04:29:01;;;;;;;;;;;6.80;99.90;;;;;;5051309;28;20056;-62
2020/12/17 04:31:47;;;;;;;25.27;10.57;;;6.80;99.90;;;;;;5052306;28;19912;-62
2020/12/17 04:34:33;;;;;;;17.73;9.90;;;6.80;99.90;;;;;;5052323;28;20033;-62
2020/12/17 04:37:19;;;;;;;20.13;10.27;;;6.60;99.90;;;;;;5051497;28;20044;-62
2020/12/17 04:40:05;;;;;;;22.98;10.88;;;6.60;99.90;;;;;;5050988;28;20104;-62
2020/12/17 04:42:51;;;;;;;21.20;10.50;;;6.70;99.90;;;;;;5051979;28;20040;-62
2020/12/17 04:45:39;;;;;;;23.27;10.82;;;6.70;99.90;;;;;;5052087;28;20421;-62
2020/12/17 04:48:26;;;;;;;16.48;9.77;;;6.50;99.90;;;;;;5036421;28;20029;-62
2020/12/17 04:51:14;;;;;;;21.25;10.90;;;6.60;99.90;;;;;;5050944;28;20037;-62
2020/12/17 04:54:02;;;;;;;21.48;10.48;;;6.60;99.90;;;;;;5051163;28;20041;-61
2020/12/17 04:57:04;;;;;;;20.42;10.13;;;6.40;99.90;;;;;;5036150;28;20037;-62
2020/12/17 04:59:51;;;;;;;19.02;9.98;;;6.40;99.90;;;;;;5047309;28;20064;-61
2020/12/17 05:02:37;;;;;;;21.75;10.57;;;6.30;99.90;;;;;;5050588;28;20104;-61
2020/12/17 05:05:26;;;;;;;22.15;11.23;;;6.20;99.90;;;;;;5050249;28;20048;-62
2020/12/17 05:08:12;;;;;;;24.80;11.30;;;6.10;99.90;;;;;;5051052;28;20044;-62
2020/12/17 05:10:58;;;;;;;20.48;10.20;;;6.10;99.90;;;;;;5052299;28;20406;-61
2020/12/17 05:13:44;;;;;;;20.92;10.20;;;6.10;99.90;;;;;;5051118;28;20029;-61
2020/12/17 05:16:31;;;;;;;19.17;9.43;;;6.10;99.90;;;;;;5034191;28;20478;-62
2020/12/17 05:19:17;;;;;;;18.98;10.68;;;6.10;99.90;;;;;;5036472;28;20029;-62
2020/12/17 05:22:05;;;;;;;18.23;9.18;;;6.00;99.90;;;;;;5043321;28;20029;-62
2020/12/17 05:24:51;;;;;;;21.40;11.45;;;6.00;99.90;;;;;;4998092;28;20034;-62
2020/12/17 05:27:38;;;;;;;20.08;10.25;;;6.00;99.90;;;;;;5011106;28;20033;-62
2020/12/17 05:30:35;;;;;;;25.60;12.40;;;6.00;99.90;;;;;;5011164;28;20041;-61
2020/12/17 05:33:22;;;;;;;18.42;9.27;;;5.90;99.90;;;;;;5010855;28;20044;-59
2020/12/17 05:36:08;;;;;;;21.70;11.02;;;6.00;99.90;;;;;;5011530;28;20182;-60
2020/12/17 05:39:12;;;;;;;21.23;9.60;;;6.00;99.90;;;;;;5010940;28;20176;-60
2020/12/17 05:41:59;;;;;;;20.40;11.13;;;6.00;99.90;;;;;;4997468;28;20034;-61
2020/12/17 05:44:45;;;;;;;21.45;10.45;;;6.00;99.90;;;;;;4997073;28;20156;-61
2020/12/17 05:47:31;;;;;;;18.30;9.02;;;6.10;99.90;;;;;;5010305;28;20034;-61
2020/12/17 05:50:17;;;;;;;19.25;10.25;;;6.00;99.90;;;;;;5010970;28;20055;-61
2020/12/17 05:53:03;;;;;;;18.63;9.27;;;6.00;99.90;;;;;;5016765;28;20034;-61
2020/12/17 05:55:59;;;;;;;18.52;9.50;;;6.00;99.90;;;;;;5032276;28;20046;-64
2020/12/17 05:58:45;;;;;;;17.38;8.63;;;6.00;99.90;;;;;;5018552;28;20044;-64
2020/12/17 06:01:33;;;;;;;19.40;9.90;;;6.10;99.90;;;;;;5031509;28;20034;-61
2020/12/17 06:04:19;;;;;;;21.33;9.48;;;6.20;99.90;;;;;;5029928;28;20124;-62
2020/12/17 06:07:06;;;;;;;20.77;8.48;;;6.30;99.90;;;;;;5031077;28;20034;-62
2020/12/17 06:10:06;;;;;;;16.02;8.55;;;6.50;99.90;;;;;;5018618;28;20041;-62
2020/12/17 06:12:56;;;;;;;16.17;7.95;;;6.70;99.90;;;;;;5020491;28;20041;-61
2020/12/17 06:15:52;;;;;;;16.33;8.80;;;6.80;99.90;;;;;;5020003;28;20041;-61
2020/12/17 06:18:48;;;;;;;18.20;8.82;;;6.90;99.90;;;;;;5018718;28;20083;-61
2020/12/17 06:21:35;;;;;;;14.70;7.88;;;6.90;99.90;;;;;;5033905;28;20539;-61
2020/12/17 06:24:21;;;;;;;20.50;8.20;;;6.80;99.90;;;;;;5006017;28;20494;-61
2020/12/17 06:27:14;;;;;;;16.40;7.93;;;6.80;99.90;;;;;;5033980;28;20406;-61
2020/12/17 06:30:07;;;;;;;18.38;8.85;;;6.70;99.90;;;;;;5017788;28;20048;-61
2020/12/17 06:32:56;;;;;;;14.85;7.85;;;6.90;99.90;;;;;;5032578;28;20060;-61
2020/12/17 06:35:54;;;;;;;11.07;6.28;;;7.00;99.90;;;;;;5033591;28;20069;-62
2020/12/17 06:38:41;;;;;;;16.40;7.78;;;7.00;99.90;;;;;;5032432;28;20044;-62
2020/12/17 06:41:30;;;;;;;13.63;7.82;;;6.90;99.90;;;;;;5006048;28;20084;-62
2020/12/17 06:44:35;;;;;;;14.68;7.22;;;6.90;99.90;;;;;;5019357;28;20033;-62
2020/12/17 06:47:30;;;;;;;16.85;7.97;;;6.90;99.90;;;;;;5035244;28;20041;-62
2020/12/17 06:50:29;;;;;;;14.95;7.85;;;7.00;99.90;;;;;;5034633;28;20053;-62
2020/12/17 06:53:17;;;;;;;15.27;7.47;;;7.00;99.90;;;;;;5033658;28;20509;-62
2020/12/17 06:56:03;;;;;;;13.38;7.38;;;7.00;99.90;;;;;;5035080;28;20040;-62
2020/12/17 06:59:09;;;;;;;15.40;7.90;;;6.90;99.90;;;;;;5035320;28;20136;-62
2020/12/17 07:01:55;;;;;;;12.32;7.40;;;7.00;99.90;;;;;;5033780;28;20040;-61
2020/12/17 07:04:47;;;;;;;16.73;7.30;;;6.90;99.90;;;;;;5033025;28;20068;-62
2020/12/17 07:07:44;;;;;;;17.05;7.60;;;6.90;99.90;;;;;;5034723;28;20120;-62
2020/12/17 07:10:32;;;;;;;11.73;6.80;;;6.90;99.90;;;;;;5034075;28;20053;-62
2020/12/17 07:13:40;;;;;;;12.38;6.55;;;6.90;99.90;;;;;;5035212;28;20072;-62
2020/12/17 07:16:27;;;;;;;14.48;7.30;;;6.90;99.90;;;;;;5034015;28;20033;-62
2020/12/17 07:19:23;;;;;;;13.57;7.55;;;6.80;99.90;;;;;;5018842;28;20025;-62
2020/12/17 07:22:14;;;;;;;15.95;8.68;;;6.90;99.90;;;;;;5033944;28;20047;-62
2020/12/17 07:25:00;;;;;;;15.02;8.05;;;7.00;99.90;;;;;;4998415;28;20038;-62
2020/12/17 07:27:50;;;;;;;14.43;7.93;;;7.00;99.90;;;;;;4997880;28;20129;-61
2020/12/17 07:30:36;;;;;;;12.93;7.50;;;7.00;99.90;;;;;;5012777;28;20067;-61
2020/12/17 07:33:52;;;;;;;14.30;7.80;;;6.90;99.90;;;;;;5014359;28;20379;-62
2020/12/17 07:36:49;;;;;;;16.58;8.38;;;6.80;99.90;;;;;;4995875;28;20045;-62
2020/12/17 07:39:35;;;;;;;13.00;7.85;;;6.90;99.90;;;;;;4999330;28;20034;-62
2020/12/17 07:42:22;;;;;;;13.95;7.80;;;6.80;99.90;;;;;;4999907;28;20104;-62
2020/12/17 07:45:09;;;;;;;15.60;8.52;;;6.80;99.90;;;;;;4999871;28;20026;-63
2020/12/17 07:47:55;;;;;;;18.27;9.35;;;6.90;99.90;;;;;;5032456;28;20419;-62
2020/12/17 07:50:41;;;;;;;17.63;9.07;;;6.90;99.90;;;;;;5032450;28;20040;-61
2020/12/17 07:53:28;;;;;;;16.20;8.48;;;6.90;99.90;;;;;;5027525;28;20052;-61
2020/12/17 07:56:15;;;;;;;14.85;7.93;;;6.90;99.90;;;;;;5052108;28;20060;-60
2020/12/17 07:59:04;;;;;;;13.02;7.63;;;6.80;99.90;;;;;;5052125;28;20124;-61
2020/12/17 08:02:03;;;;;;;13.85;7.63;;;6.80;99.90;;;;;;5037097;28;20037;-61
2020/12/17 08:04:53;;;;;;;16.55;7.65;;;6.90;99.90;;;;;;5051414;28;20410;-61
2020/12/17 08:07:39;;;;;;;15.40;7.85;;;7.00;99.90;;;;;;5036690;28;20063;-62
2020/12/17 08:10:25;;;;;;;18.52;7.15;;;7.00;99.90;;;;;;5052318;28;20037;-62
2020/12/17 08:13:12;;;;;;;14.82;7.90;;;7.00;99.90;;;;;;5051742;28;20033;-62
2020/12/17 08:16:00;;;;;;;13.80;7.28;;;7.00;99.90;;;;;;5050784;28;20488;-62
2020/12/17 08:18:56;;;;;;;13.40;8.00;;;7.10;99.90;;;;;;5050086;28;20033;-62
2020/12/17 08:21:44;;;;;;;14.05;7.28;;;7.20;99.90;;;;;;5052423;28;20021;-64
2020/12/17 08:24:32;;;;;;;16.52;7.70;;;7.30;99.90;;;;;;5036359;28;20044;-62
2020/12/17 08:27:22;;;;;;;13.45;7.57;;;7.40;99.90;;;;;;5052667;28;20406;-62
2020/12/17 08:30:08;;;;;;;14.07;7.15;;;7.50;99.90;;;;;;5036853;28;20060;-62
2020/12/17 08:32:55;;;;;;;15.10;8.32;;;7.60;99.90;;;;;;5051426;28;20040;-62
2020/12/17 08:35:41;;;;;;;14.55;7.88;;;7.50;99.90;;;;;;5050920;28;20051;-61
2020/12/17 08:38:27;;;;;;;13.27;7.28;;;7.80;99.90;;;;;;5051184;28;20110;-61
2020/12/17 08:41:17;;;;;;;14.30;7.32;;;7.90;99.90;;;;;;5050579;28;20386;-62
2020/12/17 08:44:06;;;;;;;13.25;6.97;;;7.80;99.90;;;;;;5030753;28;20490;-62
2020/12/17 08:47:05;;;;;;;12.88;6.60;;;7.90;99.90;;;;;;5029815;28;20060;-61
2020/12/17 08:49:51;;;;;;;14.10;7.78;;;7.90;99.90;;;;;;5017950;28;20412;-61
2020/12/17 08:52:37;;;;;;;14.50;7.32;;;8.00;99.90;;;;;;5019125;28;20040;-62
2020/12/17 08:55:24;;;;;;;15.05;7.43;;;8.20;99.90;;;;;;5051278;28;20047;-61
2020/12/17 08:58:10;;;;;;;15.45;7.80;;;8.40;99.90;;;;;;5052253;28;20055;-59
2020/12/17 09:00:57;;;;;;;15.82;7.47;;;8.40;99.90;;;;;;5050363;28;20453;-61
2020/12/17 09:03:47;;;;;;;13.75;7.45;;;8.40;99.90;;;;;;5050855;28;20033;-61
2020/12/17 09:06:35;;;;;;;15.27;7.82;;;8.60;99.90;;;;;;5051373;28;20664;-61
2020/12/17 09:09:27;;;;;;;16.25;7.22;;;8.70;99.90;;;;;;5050441;28;20041;-61
2020/12/17 09:12:13;;;;;;;16.92;7.18;;;8.80;99.90;;;;;;5037179;28;20040;-62
2020/12/17 09:15:12;;;;;;;13.20;7.53;;;8.80;99.90;;;;;;5050006;28;20582;-62
2020/12/17 09:18:10;;;;;;;12.65;6.97;;;9.00;99.90;;;;;;5050803;28;20044;-62
2020/12/17 09:21:11;;;;;;;12.10;6.45;;;8.80;99.90;;;;;;5050955;28;20037;-62
2020/12/17 09:24:00;;;;;;;14.68;7.60;;;8.70;99.90;;;;;;5049108;28;20028;-62
2020/12/17 09:26:46;;;;;;;16.98;6.85;;;8.60;99.90;;;;;;5050159;28;20036;-62
2020/12/17 09:29:32;;;;;;;12.40;6.70;;;8.60;99.90;;;;;;5051262;28;20060;-62
2020/12/17 09:32:19;;;;;;;12.93;6.80;;;8.60;99.90;;;;;;5050134;28;20032;-63
2020/12/17 09:35:13;;;;;;;14.10;6.88;;;8.50;99.90;;;;;;5050246;28;20026;-62
2020/12/17 09:38:06;;;;;;;12.88;7.15;;;8.40;99.90;;;;;;5051232;28;20056;-63
2020/12/17 09:40:53;;;;;;;14.43;7.28;;;8.40;99.90;;;;;;5037419;28;20521;-62
2020/12/17 09:43:48;;;;;;;14.85;7.68;;;8.40;99.90;;;;;;5054815;28;20055;-62
2020/12/17 09:46:45;;;;;;;14.63;7.65;;;8.40;99.90;;;;;;5053066;28;20057;-62
2020/12/17 09:49:37;;;;;;;14.70;6.95;;;8.40;99.90;;;;;;5054668;28;20405;-62
2020/12/17 09:52:26;;;;;;;14.18;7.60;;;8.40;99.90;;;;;;5054552;28;20446;-62
2020/12/17 09:55:13;;;;;;;14.23;7.05;;;8.40;99.90;;;;;;5053646;28;20035;-61
2020/12/17 09:57:59;;;;;;;14.52;8.05;;;8.40;99.90;;;;;;5054254;28;20043;-62
2020/12/17 10:00:45;;;;;;;12.88;7.90;;;8.40;99.90;;;;;;5055112;28;20041;-63
2020/12/17 10:03:32;;;;;;;12.02;7.15;;;8.40;99.90;;;;;;5055490;28;20040;-62
2020/12/17 10:06:18;;;;;;;16.30;7.60;;;8.40;99.90;;;;;;5039308;28;20120;-62
2020/12/17 10:09:04;;;;;;;12.98;6.82;;;8.50;99.90;;;;;;5054707;28;20128;-62
2020/12/17 10:11:53;;;;;;;12.82;7.63;;;8.50;99.90;;;;;;5054677;28;20029;-62
2020/12/17 10:14:39;;;;;;;15.82;7.55;;;8.50;99.90;;;;;;5038807;28;20037;-62
2020/12/17 10:17:25;;;;;;;13.30;6.80;;;8.60;99.90;;;;;;5054518;28;20041;-62
2020/12/17 10:20:11;;;;;;;12.57;7.40;;;8.70;99.90;;;;;;5054625;28;20033;-62
2020/12/17 10:22:57;;;;;;;12.32;7.00;;;8.70;99.90;;;;;;5054231;28;20103;-62
2020/12/17 10:25:43;;;;;;;15.38;7.72;;;8.80;99.90;;;;;;5053477;28;20032;-61
2020/12/17 10:28:29;;;;;;;14.50;7.60;;;8.70;99.90;;;;;;5053715;28;20486;-62
2020/12/17 10:31:16;;;;;;;16.13;8.30;;;8.70;99.90;;;;;;5054114;28;20477;-61
2020/12/17 10:34:02;;;;;;;13.85;7.38;;;8.80;99.90;;;;;;5040417;28;20414;-62
2020/12/17 10:36:48;;;;;;;14.43;7.97;;;8.80;99.90;;;;;;5054780;28;20048;-62
2020/12/17 10:39:34;;;;;;;12.32;6.60;;;8.80;99.90;;;;;;5054155;28;20032;-62
2020/12/17 10:42:21;;;;;;;13.73;7.47;;;8.80;99.90;;;;;;5055343;28;20040;-62
2020/12/17 10:45:09;;;;;;;15.93;7.78;;;8.90;99.90;;;;;;5054031;28;20051;-62
2020/12/17 10:47:55;;;;;;;13.82;7.28;;;8.90;99.90;;;;;;5044661;28;20037;-62
2020/12/17 10:50:41;;;;;;;15.15;7.70;;;8.90;99.90;;;;;;5054369;28;20052;-62
2020/12/17 10:53:27;;;;;;;11.88;6.55;;;8.90;99.90;;;;;;5054249;28;20044;-62
2020/12/17 10:56:13;;;;;;;12.63;6.90;;;8.90;99.90;;;;;;5054136;28;20044;-62
2020/12/17 10:58:59;;;;;;;13.98;7.70;;;8.90;99.90;;;;;;5054210;28;20576;-61
2020/12/17 11:01:45;;;;;;;14.18;7.47;;;8.80;99.90;;;;;;5038694;28;20132;-62
2020/12/17 11:04:31;;;;;;;12.55;6.93;;;8.80;99.90;;;;;;5053505;28;20438;-61
2020/12/17 11:07:17;;;;;;;13.57;7.32;;;8.80;99.90;;;;;;5054308;28;20044;-61
2020/12/17 11:10:04;;;;;;;10.55;6.47;;;9.00;99.90;;;;;;5054163;28;20128;-62
2020/12/17 11:12:50;;;;;;;15.43;7.38;;;9.00;99.90;;;;;;5039711;28;20115;-62
2020/12/17 11:15:36;;;;;;;12.23;6.38;;;9.20;99.90;;;;;;5053046;28;20035;-62
2020/12/17 11:18:22;;;;;;;14.48;6.95;;;9.20;99.90;;;;;;5054773;28;20045;-61
2020/12/17 11:21:09;;;;;;;12.32;5.93;;;9.20;99.90;;;;;;5052311;28;20039;-62
2020/12/17 11:23:55;;;;;;;23.27;7.28;;;9.30;99.90;;;;;;5052381;28;20172;-62
2020/12/17 11:26:45;;;;;;;13.90;7.40;;;9.40;99.90;;;;;;5052628;28;20151;-62
2020/12/17 11:29:31;;;;;;;10.80;6.78;;;9.40;99.90;;;;;;5052720;28;20033;-61
2020/12/17 11:32:20;;;;;;;13.60;6.47;;;9.40;99.90;;;;;;5053181;28;20501;-63
2020/12/17 11:35:07;;;;;;;13.63;6.40;;;9.30;99.90;;;;;;5038864;28;20099;-61
2020/12/17 11:37:53;;;;;;;12.52;6.32;;;9.30;99.90;;;;;;5053588;28;20033;-61
2020/12/17 11:40:39;;;;;;;12.45;7.20;;;9.40;99.90;;;;;;5052447;28;20431;-61
2020/12/17 11:43:25;;;;;;;15.52;7.03;;;9.40;99.90;;;;;;5052518;28;20080;-61
2020/12/17 11:46:11;;;;;;;13.20;6.93;;;9.50;99.90;;;;;;5052121;28;20419;-62
2020/12/17 11:48:58;;;;;;;14.13;7.10;;;9.60;99.90;;;;;;5053312;28;20128;-62
2020/12/17 11:51:44;;;;;;;12.50;7.10;;;9.60;99.90;;;;;;5037926;28;20052;-63
2020/12/17 11:54:30;;;;;;;12.02;6.70;;;9.60;99.90;;;;;;5052936;28;20033;-66
2020/12/17 11:57:16;;;;;;;9.88;6.10;;;9.70;99.90;;;;;;5037637;28;20029;-53
2020/12/17 12:00:08;;;;;;;17.40;7.40;;;9.70;99.90;;;;;;5052501;28;20123;-52
2020/12/17 12:02:54;;;;;;;13.65;7.15;;;9.90;99.90;;;;;;5051685;28;20049;-54
2020/12/17 12:05:40;;;;;;;14.13;6.85;;;10.00;99.90;;;;;;5051517;28;20037;-53
2020/12/17 12:08:26;;;;;;;14.38;6.85;;;10.20;99.90;;;;;;5051737;28;20109;-54
2020/12/17 12:11:12;;;;;;;11.98;5.88;;;10.30;99.90;;;;;;5052502;28;20402;-55
2020/12/17 12:13:58;;;;;;;14.70;6.70;;;10.40;99.90;;;;;;5052728;28;20033;-51
2020/12/17 12:16:44;;;;;;;13.70;6.90;;;10.40;99.90;;;;;;5052218;28;20564;-59
2020/12/17 12:19:31;;;;;;;13.75;7.28;;;10.50;99.90;;;;;;5052164;28;20098;-58
2020/12/17 12:22:17;;;;;;;11.82;6.70;;;10.60;99.90;;;;;;5051473;28;20037;-59
2020/12/17 12:25:04;;;;;;;11.32;6.50;;;10.70;99.90;;;;;;5051778;28;20500;-58
2020/12/17 12:27:50;;;;;;;12.02;6.53;;;10.90;99.90;;;;;;5052552;28;20113;-57
2020/12/17 12:30:37;;;;;;;13.77;6.88;;;11.20;99.90;;;;;;5052432;28;20037;-62
2020/12/17 12:33:23;;;;;;;14.57;7.10;;;11.50;99.90;;;;;;5052413;28;20028;-48
2020/12/17 12:36:09;;;;;;;13.68;6.35;;;11.70;99.90;;;;;;5050894;28;20080;-58
2020/12/17 12:38:55;;;;;;;14.55;5.50;;;13.00;99.90;;;;;;5051467;28;20040;-63
2020/12/17 12:41:47;;;;;;;9.55;5.55;;;14.60;99.90;;;;;;5052134;28;20571;-68
2020/12/17 12:44:34;;;;;;;10.43;5.47;;;15.00;99.90;;;;;;5051160;28;20446;-56
2020/12/17 12:47:20;;;;;;;10.60;4.90;;;14.00;99.90;;;;;;5052177;28;20057;-56
2020/12/17 12:50:06;;;;;;;9.45;4.53;;;13.70;99.90;;;;;;5052237;28;20535;-59
2020/12/17 12:52:52;;;;;;;8.95;5.13;;;13.10;99.90;;;;;;5051700;28;20041;-58
2020/12/17 12:55:38;;;;;;;7.82;4.40;;;13.00;99.90;;;;;;5032236;28;20382;-58
2020/12/17 12:58:24;;;;;;;7.70;4.25;;;13.40;99.90;;;;;;5030629;28;20040;-51
2020/12/17 13:01:10;;;;;;;15.93;5.10;;;14.20;99.90;;;;;;5030442;28;20497;-48
2020/12/17 13:03:56;;;;;;;7.75;4.15;;;13.90;99.90;;;;;;5016337;28;20044;-51
2020/12/17 13:06:42;;;;;;;7.75;3.92;;;13.70;99.90;;;;;;5030443;28;20520;-48
2020/12/17 13:09:28;;;;;;;7.63;3.78;;;14.00;99.90;;;;;;5030857;28;20457;-49
2020/12/17 13:12:14;;;;;;;6.72;3.85;;;13.70;99.90;;;;;;5032193;28;20465;-46
2020/12/17 13:15:00;;;;;;;8.73;4.00;;;14.10;99.90;;;;;;5031007;28;20503;-54
2020/12/17 13:17:47;;;;;;;5.45;3.50;;;14.30;99.90;;;;;;5043682;28;20024;-51
2020/12/17 13:20:33;;;;;;;6.75;3.20;;;14.00;99.90;;;;;;5051877;28;20493;-53
2020/12/17 13:23:19;;;;;;;6.43;3.00;;;14.00;99.90;;;;;;5037097;28;20040;-49
2020/12/17 13:26:05;;;;;;;8.68;4.00;;;13.60;99.90;;;;;;5051585;28;20498;-52
2020/12/17 13:28:51;;;;;;;4.97;2.70;;;13.30;99.90;;;;;;5051911;28;20068;-54
2020/12/17 13:31:37;;;;;;;7.38;3.20;;;13.80;99.90;;;;;;5051806;28;20040;-54
2020/12/17 13:34:23;;;;;;;6.53;3.20;;;14.00;99.90;;;;;;5051066;28;20040;-53
2020/12/17 13:37:09;;;;;;;8.10;3.67;;;14.00;99.90;;;;;;5051480;28;20059;-55
2020/12/17 13:39:56;;;;;;;5.30;2.80;;;14.00;99.90;;;;;;5049867;28;20028;-54
2020/12/17 13:42:42;;;;;;;4.60;2.53;;;14.80;99.90;;;;;;5051466;28;20051;-65
2020/12/17 13:45:28;;;;;;;5.18;3.50;;;15.10;99.90;;;;;;5050774;28;20486;-49
2020/12/17 13:48:14;;;;;;;4.65;2.45;;;15.00;99.90;;;;;;5052148;28;20103;-52
2020/12/17 13:51:00;;;;;;;4.05;2.40;;;14.80;99.90;;;;;;5051481;28;20034;-55
2020/12/17 13:53:47;;;;;;;5.38;2.42;;;14.70;99.90;;;;;;5051375;28;20043;-59
2020/12/17 13:56:33;;;;;;;5.55;2.33;;;14.70;99.90;;;;;;5049958;28;20045;-58
2020/12/17 13:59:19;;;;;;;5.93;2.40;;;14.30;99.90;;;;;;5048717;28;20021;-63
2020/12/17 14:02:05;;;;;;;3.47;1.80;;;14.10;99.90;;;;;;5049010;28;20110;-60
2020/12/17 14:04:52;;;;;;;4.55;2.00;;;13.50;99.90;;;;;;5050061;28;20044;-60
2020/12/17 14:07:38;;;;;;;4.32;2.13;;;13.00;99.90;;;;;;5051178;28;20043;-59
2020/12/17 14:10:25;;;;;;;4.55;2.22;;;12.80;99.90;;;;;;5051322;28;20029;-53
2020/12/17 14:13:11;;;;;;;1.85;1.10;;;12.90;99.90;;;;;;5050064;28;20041;-54
2020/12/17 14:15:57;;;;;;;2.28;1.30;;;12.90;99.90;;;;;;5050232;28;20041;-53
2020/12/17 14:18:50;;;;;;;4.07;1.40;;;13.00;99.90;;;;;;5050083;28;20113;-52
2020/12/17 14:21:36;;;;;;;1.15;0.68;;;13.10;99.90;;;;;;5051029;28;20123;-56
2020/12/17 14:24:22;;;;;;;2.47;0.95;;;12.90;99.90;;;;;;5050541;28;20033;-55
2020/12/17 14:27:08;;;;;;;1.83;0.80;;;12.70;99.90;;;;;;5050599;28;20052;-57
2020/12/17 14:29:54;;;;;;;2.38;1.02;;;12.80;99.90;;;;;;5052419;28;20029;-55